sensor_id;sensor_type;location;lat;lon;timestamp;P1;durP1;ratioP1;P2;durP2;ratioP2
65035;SDS011;51603;49.300;8.880;2022-08-14T00:00:45;4.87;;;4.37;;
65035;SDS011;51603;49.300;8.880;2022-08-14T00:03:23;5.10;;;4.67;;
65035;SDS011;51603;49.300;8.880;2022-08-14T00:05:50;4.60;;;4.30;;
65035;SDS011;51603;49.300;8.880;2022-08-14T00:08:16;5.07;;;4.67;;
65035;SDS011;51603;49.300;8.880;2022-08-14T00:10:42;5.07;;;4.67;;
65035;SDS011;51603;49.300;8.880;2022-08-14T00:13:08;5.27;;;4.87;;
65035;SDS011;51603;49.300;8.880;2022-08-14T00:15:35;4.63;;;4.17;;
65035;SDS011;51603;49.300;8.880;2022-08-14T00:18:05;6.47;;;4.90;;
65035;SDS011;51603;49.300;8.880;2022-08-14T00:20:33;5.50;;;5.00;;
65035;SDS011;51603;49.300;8.880;2022-08-14T00:23:01;5.40;;;4.90;;
65035;SDS011;51603;49.300;8.880;2022-08-14T00:25:29;5.00;;;4.60;;
65035;SDS011;51603;49.300;8.880;2022-08-14T00:27:54;6.63;;;4.40;;
65035;SDS011;51603;49.300;8.880;2022-08-14T00:30:20;5.80;;;5.30;;
65035;SDS011;51603;49.300;8.880;2022-08-14T00:32:46;4.47;;;4.03;;
65035;SDS011;51603;49.300;8.880;2022-08-14T00:35:12;5.63;;;4.87;;
65035;SDS011;51603;49.300;8.880;2022-08-14T00:37:38;5.33;;;4.93;;
65035;SDS011;51603;49.300;8.880;2022-08-14T00:40:06;5.37;;;4.97;;
65035;SDS011;51603;49.300;8.880;2022-08-14T00:42:33;5.37;;;4.87;;
65035;SDS011;51603;49.300;8.880;2022-08-14T00:44:59;5.63;;;5.23;;
65035;SDS011;51603;49.300;8.880;2022-08-14T00:47:25;5.90;;;5.37;;
65035;SDS011;51603;49.300;8.880;2022-08-14T00:49:51;6.30;;;5.80;;
65035;SDS011;51603;49.300;8.880;2022-08-14T00:52:20;6.53;;;5.93;;
65035;SDS011;51603;49.300;8.880;2022-08-14T00:54:47;5.73;;;5.23;;
65035;SDS011;51603;49.300;8.880;2022-08-14T00:57:17;5.43;;;5.03;;
65035;SDS011;51603;49.300;8.880;2022-08-14T00:59:43;5.30;;;4.90;;
65035;SDS011;51603;49.300;8.880;2022-08-14T01:02:09;6.00;;;5.50;;
65035;SDS011;51603;49.300;8.880;2022-08-14T01:04:36;6.37;;;5.87;;
65035;SDS011;51603;49.300;8.880;2022-08-14T01:07:03;5.43;;;5.03;;
65035;SDS011;51603;49.300;8.880;2022-08-14T01:09:28;5.87;;;5.40;;
65035;SDS011;51603;49.300;8.880;2022-08-14T01:11:55;5.60;;;5.13;;
65035;SDS011;51603;49.300;8.880;2022-08-14T01:14:21;5.83;;;5.33;;
65035;SDS011;51603;49.300;8.880;2022-08-14T01:16:47;6.50;;;6.00;;
65035;SDS011;51603;49.300;8.880;2022-08-14T01:19:13;7.47;;;5.60;;
65035;SDS011;51603;49.300;8.880;2022-08-14T01:21:57;6.70;;;6.10;;
65035;SDS011;51603;49.300;8.880;2022-08-14T01:24:23;5.50;;;5.10;;
65035;SDS011;51603;49.300;8.880;2022-08-14T01:26:49;6.40;;;5.90;;
65035;SDS011;51603;49.300;8.880;2022-08-14T01:29:15;9.43;;;7.20;;
65035;SDS011;51603;49.300;8.880;2022-08-14T01:31:41;6.80;;;6.20;;
65035;SDS011;51603;49.300;8.880;2022-08-14T01:34:14;6.77;;;6.07;;
65035;SDS011;51603;49.300;8.880;2022-08-14T01:36:39;8.53;;;6.63;;
65035;SDS011;51603;49.300;8.880;2022-08-14T01:39:07;6.97;;;6.30;;
65035;SDS011;51603;49.300;8.880;2022-08-14T01:41:37;5.87;;;5.47;;
65035;SDS011;51603;49.300;8.880;2022-08-14T01:44:06;6.30;;;5.80;;
65035;SDS011;51603;49.300;8.880;2022-08-14T01:46:37;6.57;;;6.07;;
65035;SDS011;51603;49.300;8.880;2022-08-14T01:49:06;6.03;;;5.53;;
65035;SDS011;51603;49.300;8.880;2022-08-14T01:51:34;6.40;;;5.90;;
65035;SDS011;51603;49.300;8.880;2022-08-14T01:54:04;6.63;;;6.13;;
65035;SDS011;51603;49.300;8.880;2022-08-14T01:56:42;5.87;;;5.47;;
65035;SDS011;51603;49.300;8.880;2022-08-14T02:01:39;6.90;;;6.30;;
65035;SDS011;51603;49.300;8.880;2022-08-14T02:04:07;6.73;;;6.13;;
65035;SDS011;51603;49.300;8.880;2022-08-14T02:06:32;6.83;;;6.23;;
65035;SDS011;51603;49.300;8.880;2022-08-14T02:09:01;8.10;;;7.40;;
65035;SDS011;51603;49.300;8.880;2022-08-14T02:11:30;7.70;;;6.97;;
65035;SDS011;51603;49.300;8.880;2022-08-14T02:13:59;7.00;;;6.40;;
65035;SDS011;51603;49.300;8.880;2022-08-14T02:16:29;7.13;;;6.53;;
65035;SDS011;51603;49.300;8.880;2022-08-14T02:19:01;6.47;;;5.97;;
65035;SDS011;51603;49.300;8.880;2022-08-14T02:21:30;7.37;;;6.67;;
65035;SDS011;51603;49.300;8.880;2022-08-14T02:23:57;7.30;;;6.70;;
65035;SDS011;51603;49.300;8.880;2022-08-14T02:26:26;8.30;;;7.27;;
65035;SDS011;51603;49.300;8.880;2022-08-14T02:28:55;7.80;;;7.20;;
65035;SDS011;51603;49.300;8.880;2022-08-14T02:31:27;7.60;;;7.00;;
65035;SDS011;51603;49.300;8.880;2022-08-14T02:34:04;7.43;;;6.90;;
65035;SDS011;51603;49.300;8.880;2022-08-14T02:36:31;7.67;;;6.97;;
65035;SDS011;51603;49.300;8.880;2022-08-14T02:38:57;7.53;;;6.93;;
65035;SDS011;51603;49.300;8.880;2022-08-14T02:41:23;7.73;;;7.13;;
65035;SDS011;51603;49.300;8.880;2022-08-14T02:43:49;7.80;;;7.30;;
65035;SDS011;51603;49.300;8.880;2022-08-14T02:46:15;8.10;;;7.40;;
65035;SDS011;51603;49.300;8.880;2022-08-14T02:48:41;8.07;;;7.47;;
65035;SDS011;51603;49.300;8.880;2022-08-14T02:51:09;8.13;;;7.50;;
65035;SDS011;51603;49.300;8.880;2022-08-14T02:53:40;8.63;;;7.70;;
65035;SDS011;51603;49.300;8.880;2022-08-14T02:56:08;8.00;;;7.40;;
65035;SDS011;51603;49.300;8.880;2022-08-14T02:58:38;8.57;;;7.77;;
65035;SDS011;51603;49.300;8.880;2022-08-14T03:01:07;7.30;;;6.77;;
65035;SDS011;51603;49.300;8.880;2022-08-14T03:03:34;8.03;;;7.43;;
65035;SDS011;51603;49.300;8.880;2022-08-14T03:06:02;8.37;;;7.67;;
65035;SDS011;51603;49.300;8.880;2022-08-14T03:08:29;8.20;;;7.50;;
65035;SDS011;51603;49.300;8.880;2022-08-14T03:11:00;9.17;;;8.50;;
65035;SDS011;51603;49.300;8.880;2022-08-14T03:13:30;8.20;;;7.50;;
65035;SDS011;51603;49.300;8.880;2022-08-14T03:15:59;8.90;;;8.20;;
65035;SDS011;51603;49.300;8.880;2022-08-14T03:18:26;8.53;;;7.93;;
65035;SDS011;51603;49.300;8.880;2022-08-14T03:20:52;8.20;;;7.60;;
65035;SDS011;51603;49.300;8.880;2022-08-14T03:23:18;8.03;;;7.40;;
65035;SDS011;51603;49.300;8.880;2022-08-14T03:25:44;9.00;;;8.10;;
65035;SDS011;51603;49.300;8.880;2022-08-14T03:28:10;8.97;;;8.27;;
65035;SDS011;51603;49.300;8.880;2022-08-14T03:30:36;9.07;;;8.37;;
65035;SDS011;51603;49.300;8.880;2022-08-14T03:33:02;8.43;;;7.80;;
65035;SDS011;51603;49.300;8.880;2022-08-14T03:35:29;8.97;;;8.27;;
65035;SDS011;51603;49.300;8.880;2022-08-14T03:37:55;8.33;;;7.73;;
65035;SDS011;51603;49.300;8.880;2022-08-14T03:40:28;9.17;;;8.37;;
65035;SDS011;51603;49.300;8.880;2022-08-14T03:42:54;9.57;;;8.80;;
65035;SDS011;51603;49.300;8.880;2022-08-14T03:45:19;9.67;;;8.90;;
65035;SDS011;51603;49.300;8.880;2022-08-14T03:47:45;9.07;;;8.27;;
65035;SDS011;51603;49.300;8.880;2022-08-14T03:50:10;10.57;;;9.77;;
65035;SDS011;51603;49.300;8.880;2022-08-14T03:52:38;8.20;;;7.60;;
65035;SDS011;51603;49.300;8.880;2022-08-14T03:55:06;8.93;;;8.30;;
65035;SDS011;51603;49.300;8.880;2022-08-14T03:57:33;9.20;;;8.50;;
65035;SDS011;51603;49.300;8.880;2022-08-14T03:59:59;9.63;;;8.93;;
65035;SDS011;51603;49.300;8.880;2022-08-14T04:02:28;9.23;;;8.53;;
65035;SDS011;51603;49.300;8.880;2022-08-14T04:04:54;9.73;;;8.93;;
65035;SDS011;51603;49.300;8.880;2022-08-14T04:07:19;10.80;;;9.90;;
65035;SDS011;51603;49.300;8.880;2022-08-14T04:09:46;10.43;;;9.53;;
65035;SDS011;51603;49.300;8.880;2022-08-14T04:12:11;9.00;;;8.20;;
65035;SDS011;51603;49.300;8.880;2022-08-14T04:14:37;9.30;;;8.40;;
65035;SDS011;51603;49.300;8.880;2022-08-14T04:17:03;8.87;;;8.27;;
65035;SDS011;51603;49.300;8.880;2022-08-14T04:19:28;9.93;;;9.03;;
65035;SDS011;51603;49.300;8.880;2022-08-14T04:21:54;9.60;;;8.80;;
65035;SDS011;51603;49.300;8.880;2022-08-14T04:24:20;11.07;;;10.13;;
65035;SDS011;51603;49.300;8.880;2022-08-14T04:26:45;10.20;;;9.20;;
65035;SDS011;51603;49.300;8.880;2022-08-14T04:29:11;8.77;;;8.10;;
65035;SDS011;51603;49.300;8.880;2022-08-14T04:31:37;11.20;;;10.20;;
65035;SDS011;51603;49.300;8.880;2022-08-14T04:34:03;10.03;;;9.33;;
65035;SDS011;51603;49.300;8.880;2022-08-14T04:36:30;10.00;;;9.30;;
65035;SDS011;51603;49.300;8.880;2022-08-14T04:38:56;10.90;;;9.90;;
65035;SDS011;51603;49.300;8.880;2022-08-14T04:41:40;10.60;;;9.80;;
65035;SDS011;51603;49.300;8.880;2022-08-14T04:44:25;9.77;;;8.97;;
65035;SDS011;51603;49.300;8.880;2022-08-14T04:46:50;9.20;;;8.50;;
65035;SDS011;51603;49.300;8.880;2022-08-14T04:49:34;10.80;;;9.90;;
65035;SDS011;51603;49.300;8.880;2022-08-14T04:52:00;10.93;;;10.03;;
65035;SDS011;51603;49.300;8.880;2022-08-14T04:54:28;10.20;;;9.40;;
65035;SDS011;51603;49.300;8.880;2022-08-14T04:56:54;10.00;;;9.10;;
65035;SDS011;51603;49.300;8.880;2022-08-14T04:59:20;10.33;;;9.53;;
65035;SDS011;51603;49.300;8.880;2022-08-14T05:01:47;10.63;;;9.73;;
65035;SDS011;51603;49.300;8.880;2022-08-14T05:04:12;10.00;;;9.20;;
65035;SDS011;51603;49.300;8.880;2022-08-14T05:06:38;10.37;;;9.37;;
65035;SDS011;51603;49.300;8.880;2022-08-14T05:09:04;11.80;;;10.70;;
65035;SDS011;51603;49.300;8.880;2022-08-14T05:11:30;10.77;;;9.87;;
65035;SDS011;51603;49.300;8.880;2022-08-14T05:13:57;10.43;;;9.63;;
65035;SDS011;51603;49.300;8.880;2022-08-14T05:16:23;10.10;;;9.30;;
65035;SDS011;51603;49.300;8.880;2022-08-14T05:18:53;11.33;;;10.33;;
65035;SDS011;51603;49.300;8.880;2022-08-14T05:21:19;11.40;;;10.50;;
65035;SDS011;51603;49.300;8.880;2022-08-14T05:23:45;10.10;;;9.33;;
65035;SDS011;51603;49.300;8.880;2022-08-14T05:26:11;11.47;;;10.57;;
65035;SDS011;51603;49.300;8.880;2022-08-14T05:28:41;11.03;;;10.13;;
65035;SDS011;51603;49.300;8.880;2022-08-14T05:31:09;10.90;;;9.90;;
65035;SDS011;51603;49.300;8.880;2022-08-14T05:33:35;10.83;;;10.03;;
65035;SDS011;51603;49.300;8.880;2022-08-14T05:36:06;10.87;;;10.07;;
65035;SDS011;51603;49.300;8.880;2022-08-14T05:38:34;11.33;;;10.43;;
65035;SDS011;51603;49.300;8.880;2022-08-14T05:41:08;13.10;;;12.10;;
65035;SDS011;51603;49.300;8.880;2022-08-14T05:43:37;10.67;;;9.77;;
65035;SDS011;51603;49.300;8.880;2022-08-14T05:46:04;10.53;;;9.73;;
65035;SDS011;51603;49.300;8.880;2022-08-14T05:48:30;12.17;;;11.17;;
65035;SDS011;51603;49.300;8.880;2022-08-14T05:50:55;10.43;;;9.63;;
65035;SDS011;51603;49.300;8.880;2022-08-14T05:53:21;11.07;;;10.17;;
65035;SDS011;51603;49.300;8.880;2022-08-14T05:55:51;11.93;;;10.77;;
65035;SDS011;51603;49.300;8.880;2022-08-14T05:58:17;11.50;;;10.60;;
65035;SDS011;51603;49.300;8.880;2022-08-14T06:00:44;12.57;;;11.40;;
65035;SDS011;51603;49.300;8.880;2022-08-14T06:03:11;11.17;;;10.27;;
65035;SDS011;51603;49.300;8.880;2022-08-14T06:05:40;11.00;;;10.10;;
65035;SDS011;51603;49.300;8.880;2022-08-14T06:08:13;11.17;;;10.30;;
65035;SDS011;51603;49.300;8.880;2022-08-14T06:10:46;11.80;;;10.90;;
65035;SDS011;51603;49.300;8.880;2022-08-14T06:13:12;10.93;;;10.03;;
65035;SDS011;51603;49.300;8.880;2022-08-14T06:15:39;9.90;;;9.10;;
65035;SDS011;51603;49.300;8.880;2022-08-14T06:18:05;11.83;;;10.73;;
65035;SDS011;51603;49.300;8.880;2022-08-14T06:20:31;11.90;;;10.90;;
65035;SDS011;51603;49.300;8.880;2022-08-14T06:22:57;10.80;;;10.00;;
65035;SDS011;51603;49.300;8.880;2022-08-14T06:25:23;11.93;;;11.00;;
65035;SDS011;51603;49.300;8.880;2022-08-14T06:27:50;10.60;;;9.70;;
65035;SDS011;51603;49.300;8.880;2022-08-14T06:30:16;10.73;;;9.97;;
65035;SDS011;51603;49.300;8.880;2022-08-14T06:32:51;10.97;;;10.03;;
65035;SDS011;51603;49.300;8.880;2022-08-14T06:35:17;10.83;;;9.83;;
65035;SDS011;51603;49.300;8.880;2022-08-14T06:37:49;10.13;;;9.30;;
65035;SDS011;51603;49.300;8.880;2022-08-14T06:40:23;9.63;;;8.83;;
65035;SDS011;51603;49.300;8.880;2022-08-14T06:42:50;9.33;;;8.63;;
65035;SDS011;51603;49.300;8.880;2022-08-14T06:45:16;10.27;;;9.57;;
65035;SDS011;51603;49.300;8.880;2022-08-14T06:47:43;11.80;;;10.80;;
65035;SDS011;51603;49.300;8.880;2022-08-14T06:50:12;10.40;;;9.60;;
65035;SDS011;51603;49.300;8.880;2022-08-14T06:52:39;10.67;;;9.90;;
65035;SDS011;51603;49.300;8.880;2022-08-14T06:55:06;10.80;;;10.00;;
65035;SDS011;51603;49.300;8.880;2022-08-14T06:57:33;10.70;;;8.80;;
65035;SDS011;51603;49.300;8.880;2022-08-14T07:00:05;9.97;;;9.23;;
65035;SDS011;51603;49.300;8.880;2022-08-14T07:02:34;10.30;;;9.40;;
65035;SDS011;51603;49.300;8.880;2022-08-14T07:05:18;10.57;;;9.87;;
65035;SDS011;51603;49.300;8.880;2022-08-14T07:08:03;9.90;;;9.10;;
65035;SDS011;51603;49.300;8.880;2022-08-14T07:10:29;9.83;;;8.90;;
65035;SDS011;51603;49.300;8.880;2022-08-14T07:12:56;9.67;;;8.97;;
65035;SDS011;51603;49.300;8.880;2022-08-14T07:15:22;9.50;;;8.80;;
65035;SDS011;51603;49.300;8.880;2022-08-14T07:17:48;10.30;;;9.57;;
65035;SDS011;51603;49.300;8.880;2022-08-14T07:20:15;9.47;;;8.77;;
65035;SDS011;51603;49.300;8.880;2022-08-14T07:22:44;9.10;;;8.40;;
65035;SDS011;51603;49.300;8.880;2022-08-14T07:25:11;10.50;;;9.60;;
65035;SDS011;51603;49.300;8.880;2022-08-14T07:27:38;8.90;;;8.20;;
65035;SDS011;51603;49.300;8.880;2022-08-14T07:30:04;10.63;;;9.30;;
65035;SDS011;51603;49.300;8.880;2022-08-14T07:32:31;8.90;;;8.30;;
65035;SDS011;51603;49.300;8.880;2022-08-14T07:34:56;8.87;;;7.97;;
65035;SDS011;51603;49.300;8.880;2022-08-14T07:37:22;8.23;;;7.53;;
65035;SDS011;51603;49.300;8.880;2022-08-14T07:39:48;8.60;;;7.90;;
65035;SDS011;51603;49.300;8.880;2022-08-14T07:42:13;8.23;;;7.63;;
65035;SDS011;51603;49.300;8.880;2022-08-14T07:44:39;8.60;;;7.63;;
65035;SDS011;51603;49.300;8.880;2022-08-14T07:47:04;8.80;;;8.20;;
65035;SDS011;51603;49.300;8.880;2022-08-14T07:49:30;8.00;;;7.40;;
65035;SDS011;51603;49.300;8.880;2022-08-14T07:51:58;8.30;;;7.60;;
65035;SDS011;51603;49.300;8.880;2022-08-14T07:54:25;8.60;;;8.00;;
65035;SDS011;51603;49.300;8.880;2022-08-14T07:56:51;7.73;;;7.03;;
65035;SDS011;51603;49.300;8.880;2022-08-14T07:59:16;8.10;;;7.50;;
65035;SDS011;51603;49.300;8.880;2022-08-14T08:01:44;8.07;;;7.43;;
65035;SDS011;51603;49.300;8.880;2022-08-14T08:04:10;7.93;;;7.13;;
65035;SDS011;51603;49.300;8.880;2022-08-14T08:06:37;7.80;;;7.20;;
65035;SDS011;51603;49.300;8.880;2022-08-14T08:09:03;6.87;;;6.27;;
65035;SDS011;51603;49.300;8.880;2022-08-14T08:11:32;7.00;;;6.47;;
65035;SDS011;51603;49.300;8.880;2022-08-14T08:14:00;6.93;;;6.43;;
65035;SDS011;51603;49.300;8.880;2022-08-14T08:16:31;6.97;;;6.47;;
65035;SDS011;51603;49.300;8.880;2022-08-14T08:18:57;6.80;;;6.30;;
65035;SDS011;51603;49.300;8.880;2022-08-14T08:21:23;6.70;;;6.20;;
65035;SDS011;51603;49.300;8.880;2022-08-14T08:23:48;7.50;;;6.80;;
65035;SDS011;51603;49.300;8.880;2022-08-14T08:26:14;7.00;;;6.30;;
65035;SDS011;51603;49.300;8.880;2022-08-14T08:28:39;7.43;;;6.77;;
65035;SDS011;51603;49.300;8.880;2022-08-14T08:31:05;6.60;;;6.10;;
65035;SDS011;51603;49.300;8.880;2022-08-14T08:33:32;6.50;;;6.00;;
65035;SDS011;51603;49.300;8.880;2022-08-14T08:36:00;6.23;;;5.80;;
65035;SDS011;51603;49.300;8.880;2022-08-14T08:38:35;7.77;;;6.63;;
65035;SDS011;51603;49.300;8.880;2022-08-14T08:41:00;7.33;;;6.73;;
65035;SDS011;51603;49.300;8.880;2022-08-14T08:48:25;6.40;;;5.90;;
65035;SDS011;51603;49.300;8.880;2022-08-14T08:50:54;6.50;;;6.00;;
65035;SDS011;51603;49.300;8.880;2022-08-14T08:53:20;6.00;;;5.60;;
65035;SDS011;51603;49.300;8.880;2022-08-14T08:55:46;6.10;;;5.60;;
65035;SDS011;51603;49.300;8.880;2022-08-14T08:58:13;5.40;;;5.00;;
65035;SDS011;51603;49.300;8.880;2022-08-14T09:00:42;7.30;;;5.10;;
65035;SDS011;51603;49.300;8.880;2022-08-14T09:03:13;4.70;;;4.30;;
65035;SDS011;51603;49.300;8.880;2022-08-14T09:05:48;5.63;;;5.13;;
65035;SDS011;51603;49.300;8.880;2022-08-14T09:08:27;4.80;;;4.50;;
65035;SDS011;51603;49.300;8.880;2022-08-14T09:10:54;4.40;;;4.00;;
65035;SDS011;51603;49.300;8.880;2022-08-14T09:13:21;4.20;;;3.90;;
65035;SDS011;51603;49.300;8.880;2022-08-14T09:15:50;4.63;;;4.33;;
65035;SDS011;51603;49.300;8.880;2022-08-14T09:18:17;4.00;;;3.70;;
65035;SDS011;51603;49.300;8.880;2022-08-14T09:20:46;8.43;;;3.90;;
65035;SDS011;51603;49.300;8.880;2022-08-14T09:23:13;4.80;;;4.30;;
65035;SDS011;51603;49.300;8.880;2022-08-14T09:25:40;3.87;;;3.53;;
65035;SDS011;51603;49.300;8.880;2022-08-14T09:28:08;3.53;;;3.23;;
65035;SDS011;51603;49.300;8.880;2022-08-14T09:30:36;4.03;;;3.60;;
65035;SDS011;51603;49.300;8.880;2022-08-14T09:38:45;3.67;;;2.83;;
65035;SDS011;51603;49.300;8.880;2022-08-14T09:41:37;4.30;;;3.90;;
65035;SDS011;51603;49.300;8.880;2022-08-14T09:46:39;4.43;;;3.00;;
65035;SDS011;51603;49.300;8.880;2022-08-14T09:49:15;4.43;;;3.60;;
65035;SDS011;51603;49.300;8.880;2022-08-14T09:51:41;4.33;;;3.47;;
65035;SDS011;51603;49.300;8.880;2022-08-14T09:54:09;4.00;;;2.90;;
65035;SDS011;51603;49.300;8.880;2022-08-14T09:56:43;4.20;;;3.60;;
65035;SDS011;51603;49.300;8.880;2022-08-14T09:59:10;5.60;;;2.80;;
65035;SDS011;51603;49.300;8.880;2022-08-14T10:01:38;3.67;;;2.80;;
65035;SDS011;51603;49.300;8.880;2022-08-14T10:04:05;2.53;;;2.30;;
65035;SDS011;51603;49.300;8.880;2022-08-14T10:06:43;4.23;;;2.80;;
65035;SDS011;51603;49.300;8.880;2022-08-14T10:09:11;3.73;;;3.33;;
65035;SDS011;51603;49.300;8.880;2022-08-14T10:11:38;2.93;;;2.73;;
65035;SDS011;51603;49.300;8.880;2022-08-14T10:16:44;3.13;;;2.73;;
65035;SDS011;51603;49.300;8.880;2022-08-14T10:19:11;2.83;;;2.53;;
65035;SDS011;51603;49.300;8.880;2022-08-14T10:21:43;3.40;;;2.40;;
65035;SDS011;51603;49.300;8.880;2022-08-14T10:24:24;2.63;;;2.43;;
65035;SDS011;51603;49.300;8.880;2022-08-14T10:26:56;2.97;;;2.60;;
65035;SDS011;51603;49.300;8.880;2022-08-14T10:29:30;3.33;;;2.97;;
65035;SDS011;51603;49.300;8.880;2022-08-14T10:31:57;3.27;;;2.80;;
65035;SDS011;51603;49.300;8.880;2022-08-14T10:34:29;3.10;;;2.80;;
65035;SDS011;51603;49.300;8.880;2022-08-14T10:37:01;3.23;;;2.93;;
65035;SDS011;51603;49.300;8.880;2022-08-14T10:39:35;3.17;;;2.67;;
65035;SDS011;51603;49.300;8.880;2022-08-14T10:42:05;4.20;;;3.20;;
65035;SDS011;51603;49.300;8.880;2022-08-14T10:44:35;3.27;;;2.97;;
65035;SDS011;51603;49.300;8.880;2022-08-14T10:47:07;3.40;;;3.10;;
65035;SDS011;51603;49.300;8.880;2022-08-14T10:49:35;3.13;;;2.83;;
65035;SDS011;51603;49.300;8.880;2022-08-14T10:52:06;3.10;;;2.80;;
65035;SDS011;51603;49.300;8.880;2022-08-14T10:54:37;4.00;;;3.20;;
65035;SDS011;51603;49.300;8.880;2022-08-14T11:02:24;3.53;;;3.23;;
65035;SDS011;51603;49.300;8.880;2022-08-14T11:05:13;4.40;;;3.10;;
65035;SDS011;51603;49.300;8.880;2022-08-14T11:10:21;5.13;;;3.27;;
65035;SDS011;51603;49.300;8.880;2022-08-14T11:12:50;4.80;;;3.57;;
65035;SDS011;51603;49.300;8.880;2022-08-14T11:15:20;3.70;;;3.30;;
65035;SDS011;51603;49.300;8.880;2022-08-14T11:17:48;4.17;;;3.77;;
65035;SDS011;51603;49.300;8.880;2022-08-14T11:20:17;4.53;;;3.10;;
65035;SDS011;51603;49.300;8.880;2022-08-14T11:22:45;4.33;;;2.77;;
65035;SDS011;51603;49.300;8.880;2022-08-14T11:25:12;4.10;;;3.30;;
65035;SDS011;51603;49.300;8.880;2022-08-14T11:27:40;3.60;;;2.87;;
65035;SDS011;51603;49.300;8.880;2022-08-14T11:30:11;3.70;;;3.10;;
65035;SDS011;51603;49.300;8.880;2022-08-14T11:32:45;3.50;;;3.00;;
65035;SDS011;51603;49.300;8.880;2022-08-14T11:35:16;3.87;;;3.40;;
65035;SDS011;51603;49.300;8.880;2022-08-14T11:37:56;5.07;;;2.90;;
65035;SDS011;51603;49.300;8.880;2022-08-14T11:40:28;4.90;;;2.70;;
65035;SDS011;51603;49.300;8.880;2022-08-14T11:42:55;3.80;;;3.07;;
65035;SDS011;51603;49.300;8.880;2022-08-14T11:45:25;4.97;;;3.20;;
65035;SDS011;51603;49.300;8.880;2022-08-14T11:47:54;3.93;;;2.97;;
65035;SDS011;51603;49.300;8.880;2022-08-14T11:52:48;4.83;;;3.23;;
65035;SDS011;51603;49.300;8.880;2022-08-14T11:55:14;4.73;;;2.83;;
65035;SDS011;51603;49.300;8.880;2022-08-14T11:57:41;3.53;;;2.90;;
65035;SDS011;51603;49.300;8.880;2022-08-14T12:00:09;3.30;;;2.80;;
65035;SDS011;51603;49.300;8.880;2022-08-14T12:02:57;3.60;;;3.10;;
65035;SDS011;51603;49.300;8.880;2022-08-14T12:05:27;5.17;;;3.50;;
65035;SDS011;51603;49.300;8.880;2022-08-14T12:07:57;3.53;;;3.07;;
65035;SDS011;51603;49.300;8.880;2022-08-14T12:10:24;5.90;;;3.30;;
65035;SDS011;51603;49.300;8.880;2022-08-14T12:12:51;3.70;;;3.13;;
65035;SDS011;51603;49.300;8.880;2022-08-14T12:15:27;3.40;;;3.10;;
65035;SDS011;51603;49.300;8.880;2022-08-14T12:17:54;3.80;;;3.20;;
65035;SDS011;51603;49.300;8.880;2022-08-14T12:20:27;5.03;;;3.07;;
65035;SDS011;51603;49.300;8.880;2022-08-14T12:22:58;3.60;;;3.00;;
65035;SDS011;51603;49.300;8.880;2022-08-14T12:25:28;4.03;;;2.83;;
65035;SDS011;51603;49.300;8.880;2022-08-14T12:27:54;3.67;;;2.90;;
65035;SDS011;51603;49.300;8.880;2022-08-14T12:30:25;3.03;;;2.63;;
65035;SDS011;51603;49.300;8.880;2022-08-14T12:32:52;4.13;;;3.73;;
65035;SDS011;51603;49.300;8.880;2022-08-14T12:35:20;3.90;;;3.50;;
65035;SDS011;51603;49.300;8.880;2022-08-14T12:37:47;4.70;;;3.97;;
65035;SDS011;51603;49.300;8.880;2022-08-14T12:40:14;5.43;;;3.50;;
65035;SDS011;51603;49.300;8.880;2022-08-14T12:42:41;4.40;;;3.30;;
65035;SDS011;51603;49.300;8.880;2022-08-14T12:45:08;5.90;;;3.33;;
65035;SDS011;51603;49.300;8.880;2022-08-14T12:47:41;4.40;;;3.87;;
65035;SDS011;51603;49.300;8.880;2022-08-14T12:50:08;4.47;;;3.50;;
65035;SDS011;51603;49.300;8.880;2022-08-14T12:52:38;3.53;;;3.23;;
65035;SDS011;51603;49.300;8.880;2022-08-14T12:55:09;4.87;;;3.13;;
65035;SDS011;51603;49.300;8.880;2022-08-14T12:57:39;4.70;;;3.50;;
65035;SDS011;51603;49.300;8.880;2022-08-14T13:02:45;6.40;;;3.20;;
65035;SDS011;51603;49.300;8.880;2022-08-14T13:05:14;3.90;;;3.47;;
65035;SDS011;51603;49.300;8.880;2022-08-14T13:07:40;5.80;;;3.60;;
65035;SDS011;51603;49.300;8.880;2022-08-14T13:10:09;5.70;;;3.23;;
65035;SDS011;51603;49.300;8.880;2022-08-14T13:12:37;4.53;;;3.50;;
65035;SDS011;51603;49.300;8.880;2022-08-14T13:15:04;3.70;;;3.33;;
65035;SDS011;51603;49.300;8.880;2022-08-14T13:17:41;4.40;;;3.80;;
65035;SDS011;51603;49.300;8.880;2022-08-14T13:20:12;4.57;;;3.60;;
65035;SDS011;51603;49.300;8.880;2022-08-14T13:22:39;3.67;;;3.17;;
65035;SDS011;51603;49.300;8.880;2022-08-14T13:25:08;5.83;;;3.13;;
65035;SDS011;51603;49.300;8.880;2022-08-14T13:27:35;3.97;;;3.57;;
65035;SDS011;51603;49.300;8.880;2022-08-14T13:30:06;3.50;;;3.20;;
65035;SDS011;51603;49.300;8.880;2022-08-14T13:32:34;7.90;;;3.30;;
65035;SDS011;51603;49.300;8.880;2022-08-14T13:35:01;3.73;;;3.27;;
65035;SDS011;51603;49.300;8.880;2022-08-14T13:37:27;4.03;;;3.30;;
65035;SDS011;51603;49.300;8.880;2022-08-14T13:39:55;3.87;;;3.23;;
65035;SDS011;51603;49.300;8.880;2022-08-14T13:42:20;4.67;;;3.10;;
65035;SDS011;51603;49.300;8.880;2022-08-14T13:44:47;4.13;;;3.73;;
65035;SDS011;51603;49.300;8.880;2022-08-14T13:47:19;3.10;;;2.80;;
65035;SDS011;51603;49.300;8.880;2022-08-14T13:49:46;3.60;;;3.30;;
65035;SDS011;51603;49.300;8.880;2022-08-14T13:52:14;6.17;;;3.80;;
65035;SDS011;51603;49.300;8.880;2022-08-14T13:54:44;3.90;;;3.40;;
65035;SDS011;51603;49.300;8.880;2022-08-14T13:57:11;3.80;;;2.90;;
65035;SDS011;51603;49.300;8.880;2022-08-14T13:59:41;3.83;;;3.53;;
65035;SDS011;51603;49.300;8.880;2022-08-14T14:02:09;3.30;;;3.00;;
65035;SDS011;51603;49.300;8.880;2022-08-14T14:04:39;3.30;;;3.00;;
65035;SDS011;51603;49.300;8.880;2022-08-14T14:07:07;4.80;;;3.70;;
65035;SDS011;51603;49.300;8.880;2022-08-14T14:09:36;3.70;;;3.40;;
65035;SDS011;51603;49.300;8.880;2022-08-14T14:12:04;3.50;;;3.20;;
65035;SDS011;51603;49.300;8.880;2022-08-14T14:14:38;3.37;;;3.07;;
65035;SDS011;51603;49.300;8.880;2022-08-14T14:17:05;3.77;;;3.40;;
65035;SDS011;51603;49.300;8.880;2022-08-14T14:19:32;3.90;;;3.60;;
65035;SDS011;51603;49.300;8.880;2022-08-14T14:22:01;3.70;;;3.40;;
65035;SDS011;51603;49.300;8.880;2022-08-14T14:24:30;4.33;;;3.50;;
65035;SDS011;51603;49.300;8.880;2022-08-14T14:26:58;4.80;;;3.60;;
65035;SDS011;51603;49.300;8.880;2022-08-14T14:29:25;3.63;;;3.33;;
65035;SDS011;51603;49.300;8.880;2022-08-14T14:31:57;3.17;;;2.87;;
65035;SDS011;51603;49.300;8.880;2022-08-14T14:34:23;3.20;;;3.00;;
65035;SDS011;51603;49.300;8.880;2022-08-14T14:36:52;3.60;;;3.30;;
65035;SDS011;51603;49.300;8.880;2022-08-14T14:39:22;3.80;;;3.40;;
65035;SDS011;51603;49.300;8.880;2022-08-14T14:41:51;3.30;;;3.00;;
65035;SDS011;51603;49.300;8.880;2022-08-14T14:44:21;5.20;;;3.10;;
65035;SDS011;51603;49.300;8.880;2022-08-14T14:46:49;3.50;;;3.20;;
65035;SDS011;51603;49.300;8.880;2022-08-14T14:49:14;4.27;;;3.00;;
65035;SDS011;51603;49.300;8.880;2022-08-14T14:51:43;3.67;;;3.20;;
65035;SDS011;51603;49.300;8.880;2022-08-14T14:54:10;3.93;;;3.63;;
65035;SDS011;51603;49.300;8.880;2022-08-14T14:56:39;3.63;;;3.33;;
65035;SDS011;51603;49.300;8.880;2022-08-14T14:59:09;3.40;;;3.10;;
65035;SDS011;51603;49.300;8.880;2022-08-14T15:01:36;3.23;;;2.87;;
65035;SDS011;51603;49.300;8.880;2022-08-14T15:04:02;4.50;;;3.30;;
65035;SDS011;51603;49.300;8.880;2022-08-14T15:06:30;3.77;;;3.47;;
65035;SDS011;51603;49.300;8.880;2022-08-14T15:08:56;3.67;;;3.37;;
65035;SDS011;51603;49.300;8.880;2022-08-14T15:11:22;3.30;;;3.00;;
65035;SDS011;51603;49.300;8.880;2022-08-14T15:13:50;3.30;;;3.00;;
65035;SDS011;51603;49.300;8.880;2022-08-14T15:16:16;3.43;;;3.13;;
65035;SDS011;51603;49.300;8.880;2022-08-14T15:18:42;3.40;;;2.97;;
65035;SDS011;51603;49.300;8.880;2022-08-14T15:21:09;3.60;;;3.30;;